Time,TemperatureF,DewpointF,PressureIn,WindDirection,WindDirectionDegrees,WindSpeedMPH,WindSpeedGustMPH,Humidity,HourlyPrecipIn,Conditions,Clouds,dailyrainin,SolarRadiationWatts/m^2,SoftwareType,DateUTC
2013-09-22 00:11:00,51.0,38.0,-100.00,WNW,293,9.0,15.0,60,0.00,,,0.00,0.000000,,2013-09-22 07:11:00,
2013-09-22 00:21:00,51.0,38.0,-100.00,WNW,293,9.0,15.0,60,0.00,,,0.00,0.000000,,2013-09-22 07:21:00,
2013-09-22 00:32:00,51.0,38.0,-100.00,WNW,293,9.0,15.0,60,0.00,,,0.00,0.000000,,2013-09-22 07:32:00,
2013-09-22 00:42:00,51.0,38.0,-100.00,WNW,293,9.0,15.0,60,0.00,,,0.00,0.000000,,2013-09-22 07:42:00,
2013-09-22 01:11:00,49.0,36.0,-100.00,WNW,293,6.0,13.0,61,0.00,,,0.00,0.000000,,2013-09-22 08:11:00,
2013-09-22 01:22:00,49.0,36.0,-100.00,WNW,293,6.0,13.0,61,0.00,,,0.00,0.000000,,2013-09-22 08:22:00,
2013-09-22 01:32:00,49.0,36.0,-100.00,WNW,293,6.0,13.0,61,0.00,,,0.00,0.000000,,2013-09-22 08:32:00,
2013-09-22 01:42:00,49.0,36.0,-100.00,WNW,293,6.0,13.0,61,0.00,,,0.00,0.000000,,2013-09-22 08:42:00,
2013-09-22 02:11:00,48.0,36.0,-100.00,West,273,8.0,10.0,62,0.00,,,0.00,0.000000,,2013-09-22 09:11:00,
2013-09-22 02:21:00,48.0,36.0,-100.00,West,273,8.0,10.0,62,0.00,,,0.00,0.000000,,2013-09-22 09:21:00,
2013-09-22 02:33:00,48.0,36.0,-100.00,West,273,8.0,10.0,62,0.00,,,0.00,0.000000,,2013-09-22 09:33:00,
2013-09-22 02:43:00,48.0,36.0,-100.00,West,273,8.0,10.0,62,0.00,,,0.00,0.000000,,2013-09-22 09:43:00,
2013-09-22 03:12:00,50.0,37.0,-100.00,NW,308,1.0,12.0,61,0.00,,,-99.99,0.000000,,2013-09-22 10:12:00,
2013-09-22 03:23:00,50.0,37.0,-100.00,NW,308,1.0,12.0,61,0.00,,,-99.99,0.000000,,2013-09-22 10:23:00,
2013-09-22 03:33:00,50.0,37.0,-100.00,NW,308,1.0,12.0,61,0.00,,,-99.99,0.000000,,2013-09-22 10:33:00,
2013-09-22 03:44:00,50.0,37.0,-100.00,NW,308,1.0,12.0,61,0.00,,,-99.99,0.000000,,2013-09-22 10:44:00,
2013-09-22 04:12:00,48.0,37.0,-100.00,West,268,8.0,13.0,65,0.00,,,0.00,0.000000,,2013-09-22 11:12:00,
2013-09-22 04:22:00,48.0,37.0,-100.00,West,268,8.0,13.0,65,0.00,,,0.00,0.000000,,2013-09-22 11:22:00,
2013-09-22 04:33:00,48.0,37.0,-100.00,West,268,8.0,13.0,65,0.00,,,0.00,0.000000,,2013-09-22 11:33:00,
2013-09-22 04:42:00,48.0,37.0,-100.00,West,268,8.0,13.0,65,0.00,,,0.00,0.000000,,2013-09-22 11:42:00,
2013-09-22 05:12:00,46.0,36.0,-100.00,WSW,242,5.0,12.0,68,0.00,,,0.00,0.000000,,2013-09-22 12:12:00,
2013-09-22 05:22:00,46.0,36.0,-100.00,WSW,242,5.0,12.0,68,0.00,,,0.00,0.000000,,2013-09-22 12:22:00,
2013-09-22 05:32:00,46.0,36.0,-100.00,WSW,242,5.0,12.0,68,0.00,,,0.00,0.000000,,2013-09-22 12:32:00,
2013-09-22 05:42:00,46.0,36.0,-100.00,WSW,242,5.0,12.0,68,0.00,,,0.00,0.000000,,2013-09-22 12:42:00,
2013-09-22 06:12:00,46.0,37.0,-100.00,SW,230,1.0,9.0,71,0.00,,,0.00,0.000000,,2013-09-22 13:12:00,
2013-09-22 06:21:00,46.0,37.0,-100.00,SW,230,1.0,9.0,71,0.00,,,0.00,0.000000,,2013-09-22 13:21:00,
2013-09-22 06:32:00,46.0,37.0,-100.00,SW,230,1.0,9.0,71,0.00,,,0.00,0.000000,,2013-09-22 13:32:00,
2013-09-22 06:42:00,46.0,37.0,-100.00,SW,230,1.0,9.0,71,0.00,,,0.00,0.000000,,2013-09-22 13:42:00,
2013-09-22 07:11:00,44.0,37.0,-100.00,West,259,3.0,7.0,75,0.00,,,0.00,0.000000,,2013-09-22 14:11:00,
2013-09-22 07:22:00,44.0,37.0,-100.00,West,259,3.0,7.0,75,0.00,,,0.00,0.000000,,2013-09-22 14:22:00,
2013-09-22 07:32:00,44.0,37.0,-100.00,West,259,3.0,7.0,75,0.00,,,0.00,0.000000,,2013-09-22 14:32:00,
2013-09-22 07:42:00,44.0,37.0,-100.00,West,259,3.0,7.0,75,0.00,,,0.00,0.000000,,2013-09-22 14:42:00,
2013-09-22 08:12:00,50.0,40.0,-100.00,South,176,3.0,6.0,68,0.00,,,0.00,0.000000,,2013-09-22 15:12:00,
2013-09-22 08:23:00,50.0,40.0,-100.00,South,176,3.0,6.0,68,0.00,,,0.00,0.000000,,2013-09-22 15:23:00,
2013-09-22 08:34:00,50.0,40.0,-100.00,South,176,3.0,6.0,68,0.00,,,0.00,0.000000,,2013-09-22 15:34:00,
2013-09-22 08:44:00,50.0,40.0,-100.00,South,176,3.0,6.0,68,0.00,,,0.00,0.000000,,2013-09-22 15:44:00,
2013-09-22 09:13:00,52.0,41.0,-100.00,SSE,165,4.0,8.0,66,0.00,,,0.00,0.000000,,2013-09-22 16:13:00,
2013-09-22 09:24:00,52.0,41.0,-100.00,SSE,165,4.0,8.0,66,0.00,,,0.00,0.000000,,2013-09-22 16:24:00,
2013-09-22 09:33:00,52.0,41.0,-100.00,SSE,165,4.0,8.0,66,0.00,,,0.00,0.000000,,2013-09-22 16:33:00,
2013-09-22 09:43:00,52.0,41.0,-100.00,SSE,165,4.0,8.0,66,0.00,,,0.00,0.000000,,2013-09-22 16:43:00,
2013-09-22 10:12:00,56.0,38.0,-100.00,WSW,239,14.0,19.0,51,0.00,,,0.00,29.000000,,2013-09-22 17:12:00,
2013-09-22 10:23:00,56.0,38.0,-100.00,WSW,239,14.0,19.0,51,0.00,,,0.00,29.000000,,2013-09-22 17:23:00,
2013-09-22 10:34:00,56.0,38.0,-100.00,WSW,239,14.0,19.0,51,0.00,,,0.00,29.000000,,2013-09-22 17:34:00,
2013-09-22 10:42:00,56.0,38.0,-100.00,WSW,239,14.0,19.0,51,0.00,,,0.00,29.000000,,2013-09-22 17:42:00,
2013-09-22 11:13:00,56.0,38.0,-100.00,WSW,244,12.0,24.0,50,0.00,,,0.00,35.000000,,2013-09-22 18:13:00,
2013-09-22 11:22:00,56.0,38.0,-100.00,WSW,244,12.0,24.0,50,0.00,,,0.00,35.000000,,2013-09-22 18:22:00,
2013-09-22 11:32:00,56.0,38.0,-100.00,WSW,244,12.0,24.0,50,0.00,,,0.00,35.000000,,2013-09-22 18:32:00,
2013-09-22 11:42:00,56.0,38.0,-100.00,WSW,244,12.0,24.0,50,0.00,,,0.00,35.000000,,2013-09-22 18:42:00,
2013-09-22 12:11:00,56.0,36.0,-100.00,SSW,204,14.0,19.0,46,0.00,,,0.00,73.000000,,2013-09-22 19:11:00,
2013-09-22 12:22:00,56.0,36.0,-100.00,SSW,204,14.0,19.0,46,0.00,,,0.00,73.000000,,2013-09-22 19:22:00,
2013-09-22 12:32:00,56.0,36.0,-100.00,SSW,204,14.0,19.0,46,0.00,,,0.00,73.000000,,2013-09-22 19:32:00,
2013-09-22 12:42:00,56.0,36.0,-100.00,SSW,204,14.0,19.0,46,0.00,,,0.00,73.000000,,2013-09-22 19:42:00,
2013-09-22 13:12:00,61.0,38.0,-100.00,South,179,15.0,25.0,43,0.00,,,0.00,327.000000,,2013-09-22 20:12:00,
2013-09-22 13:22:00,61.0,38.0,-100.00,South,179,15.0,25.0,43,0.00,,,0.00,327.000000,,2013-09-22 20:22:00,
2013-09-22 13:33:00,61.0,38.0,-100.00,South,179,15.0,25.0,43,0.00,,,0.00,327.000000,,2013-09-22 20:33:00,
2013-09-22 13:42:00,61.0,38.0,-100.00,South,179,15.0,25.0,43,0.00,,,0.00,327.000000,,2013-09-22 20:42:00,
2013-09-22 14:12:00,61.0,40.0,-100.00,South,182,16.0,26.0,45,0.00,,,0.00,489.000000,,2013-09-22 21:12:00,
2013-09-22 14:23:00,61.0,40.0,-100.00,South,182,16.0,26.0,45,0.00,,,0.00,489.000000,,2013-09-22 21:23:00,
2013-09-22 14:34:00,61.0,40.0,-100.00,South,182,16.0,26.0,45,0.00,,,0.00,489.000000,,2013-09-22 21:34:00,
2013-09-22 14:44:00,61.0,40.0,-100.00,South,182,16.0,26.0,45,0.00,,,0.00,489.000000,,2013-09-22 21:44:00,
2013-09-22 15:14:00,58.0,37.0,-100.00,SSW,195,14.0,25.0,46,0.00,,,0.00,261.000000,,2013-09-22 22:14:00,
2013-09-22 15:24:00,58.0,37.0,-100.00,SSW,195,14.0,25.0,46,0.00,,,0.00,261.000000,,2013-09-22 22:24:00,
2013-09-22 15:34:00,58.0,37.0,-100.00,SSW,195,14.0,25.0,46,0.00,,,0.00,261.000000,,2013-09-22 22:34:00,
2013-09-22 15:43:00,58.0,37.0,-100.00,SSW,195,14.0,25.0,46,0.00,,,0.00,261.000000,,2013-09-22 22:43:00,
2013-09-22 16:12:00,51.0,44.0,-100.00,SSW,196,8.0,23.0,76,0.02,,,0.02,0.000000,,2013-09-22 23:12:00,
2013-09-22 16:22:00,51.0,44.0,-100.00,SSW,196,8.0,23.0,76,0.02,,,0.02,0.000000,,2013-09-22 23:22:00,
2013-09-22 16:34:00,51.0,44.0,-100.00,SSW,196,8.0,23.0,76,0.02,,,0.02,0.000000,,2013-09-22 23:34:00,
2013-09-22 16:42:00,51.0,44.0,-100.00,SSW,196,8.0,23.0,76,0.02,,,0.02,0.000000,,2013-09-22 23:42:00,
2013-09-22 17:12:00,52.0,46.0,-100.00,South,187,10.0,19.0,79,0.01,,,0.03,41.000000,,2013-09-23 00:12:00,
2013-09-22 17:23:00,52.0,46.0,-100.00,South,187,10.0,19.0,79,0.01,,,0.03,41.000000,,2013-09-23 00:23:00,
2013-09-22 17:32:00,52.0,46.0,-100.00,South,187,10.0,19.0,79,0.01,,,0.03,41.000000,,2013-09-23 00:32:00,
2013-09-22 17:42:00,52.0,46.0,-100.00,South,187,10.0,19.0,79,0.01,,,0.03,41.000000,,2013-09-23 00:42:00,
2013-09-22 18:12:00,51.0,44.0,-100.00,South,172,9.0,14.0,77,0.00,,,-99.99,2.000000,,2013-09-23 01:12:00,
2013-09-22 18:22:00,51.0,44.0,-100.00,South,172,9.0,14.0,77,0.00,,,-99.99,2.000000,,2013-09-23 01:22:00,
2013-09-22 18:32:00,51.0,44.0,-100.00,South,172,9.0,14.0,77,0.00,,,-99.99,2.000000,,2013-09-23 01:32:00,
2013-09-22 18:42:00,51.0,44.0,-100.00,South,172,9.0,14.0,77,0.00,,,-99.99,2.000000,,2013-09-23 01:42:00,
2013-09-22 19:11:00,52.0,45.0,-100.00,South,191,9.0,14.0,78,0.00,,,0.03,0.000000,,2013-09-23 02:11:00,
2013-09-22 19:22:00,52.0,45.0,-100.00,South,191,9.0,14.0,78,0.00,,,0.03,0.000000,,2013-09-23 02:22:00,
2013-09-22 19:32:00,52.0,45.0,-100.00,South,191,9.0,14.0,78,0.00,,,0.03,0.000000,,2013-09-23 02:32:00,
2013-09-22 19:42:00,52.0,45.0,-100.00,South,191,9.0,14.0,78,0.00,,,0.03,0.000000,,2013-09-23 02:42:00,
2013-09-22 20:12:00,47.0,43.0,-100.00,ENE,70,2.0,13.0,87,0.00,,,0.03,0.000000,,2013-09-23 03:12:00,
2013-09-22 20:22:00,47.0,43.0,-100.00,ENE,70,2.0,13.0,87,0.00,,,0.03,0.000000,,2013-09-23 03:22:00,
2013-09-22 20:34:00,47.0,43.0,-100.00,ENE,70,2.0,13.0,87,0.00,,,0.03,0.000000,,2013-09-23 03:34:00,
2013-09-22 20:44:00,47.0,43.0,-100.00,ENE,70,2.0,13.0,87,0.00,,,0.03,0.000000,,2013-09-23 03:44:00,
2013-09-22 21:14:00,46.0,44.0,-100.00,SW,214,5.0,10.0,91,0.00,,,0.03,0.000000,,2013-09-23 04:14:00,
2013-09-22 21:24:00,46.0,44.0,-100.00,SW,214,5.0,10.0,91,0.00,,,0.03,0.000000,,2013-09-23 04:24:00,
2013-09-22 21:33:00,46.0,44.0,-100.00,SW,214,5.0,10.0,91,0.00,,,0.03,0.000000,,2013-09-23 04:33:00,
2013-09-22 21:43:00,46.0,44.0,-100.00,SW,214,5.0,10.0,91,0.00,,,0.03,0.000000,,2013-09-23 04:43:00,
2013-09-22 22:12:00,46.0,39.0,-100.00,SW,220,10.0,14.0,77,0.00,,,0.03,0.000000,,2013-09-23 05:12:00,
2013-09-22 22:22:00,46.0,39.0,-100.00,SW,220,10.0,14.0,77,0.00,,,0.03,0.000000,,2013-09-23 05:22:00,
2013-09-22 22:34:00,46.0,39.0,-100.00,SW,220,10.0,14.0,77,0.00,,,0.03,0.000000,,2013-09-23 05:34:00,
2013-09-22 22:43:00,46.0,39.0,-100.00,SW,220,10.0,14.0,77,0.00,,,0.03,0.000000,,2013-09-23 05:43:00,
2013-09-22 23:13:00,47.0,39.0,-100.00,SW,223,9.0,13.0,74,0.00,,,0.03,0.000000,,2013-09-23 06:13:00,
2013-09-22 23:22:00,47.0,39.0,-100.00,SW,223,9.0,13.0,74,0.00,,,0.03,0.000000,,2013-09-23 06:22:00,
2013-09-22 23:32:00,47.0,39.0,-100.00,SW,223,9.0,13.0,74,0.00,,,0.03,0.000000,,2013-09-23 06:32:00,
2013-09-22 23:42:00,47.0,39.0,-100.00,SW,223,9.0,13.0,74,0.00,,,0.03,0.000000,,2013-09-23 06:42:00,